Time;durP1;ratioP1;P1;durP2;ratioP2;P2;SDS_P1;SDS_P2;PMS_P1;PMS_P2;Temp;Humidity;BMP_temperature;BMP_pressure;BME280_temperature;BME280_humidity;BME280_pressure;Samples;Min_cycle;Max_cycle;Signal;HPM_P1;HPM_P2
2023/10/15 00:00:26;;;;;;;33.13;17.42;;;15.40;99.90;;;;;;4952658;29;20035;-80
2023/10/15 00:02:52;;;;;;;27.00;14.93;;;15.40;99.90;;;;;;4954161;29;20031;-75
2023/10/15 00:05:25;;;;;;;39.30;16.35;;;15.40;99.90;;;;;;4947528;29;20039;-80
2023/10/15 00:07:51;;;;;;;31.02;16.75;;;15.30;99.90;;;;;;4951860;29;20110;-79
2023/10/15 00:10:22;;;;;;;28.80;15.65;;;15.20;99.90;;;;;;4951558;29;20033;-76
2023/10/15 00:12:51;;;;;;;30.30;17.90;;;15.30;99.90;;;;;;4953663;28;20028;-75
2023/10/15 00:15:19;;;;;;;32.53;16.35;;;15.40;99.90;;;;;;4946358;29;20034;-79
2023/10/15 00:17:46;;;;;;;26.48;16.42;;;15.40;99.90;;;;;;4954731;29;20023;-76
2023/10/15 00:25:36;;;;;;;30.80;15.68;;;15.50;99.90;;;;;;5075232;23;20121;-75
2023/10/15 00:28:09;;;;;;;30.77;15.15;;;15.50;99.90;;;;;;4984298;28;20390;-80
2023/10/15 00:30:37;;;;;;;26.13;15.30;;;15.50;99.90;;;;;;4976242;28;20493;-81
2023/10/15 00:33:11;;;;;;;29.73;14.57;;;15.50;99.90;;;;;;4975820;28;20023;-81
2023/10/15 00:35:40;;;;;;;26.45;15.77;;;15.50;99.90;;;;;;4975934;28;20031;-75
2023/10/15 00:38:24;;;;;;;27.75;14.30;;;15.40;99.90;;;;;;4976061;28;20045;-82
2023/10/15 00:41:00;;;;;;;24.25;14.75;;;15.50;99.90;;;;;;4974578;28;20501;-80
2023/10/15 00:43:27;;;;;;;30.38;15.18;;;15.30;99.90;;;;;;4975824;28;20065;-82
2023/10/15 00:45:53;;;;;;;27.08;14.70;;;15.20;99.90;;;;;;4974306;28;20067;-74
2023/10/15 00:48:33;;;;;;;29.67;14.13;;;15.30;99.90;;;;;;4975947;28;20030;-74
2023/10/15 00:51:01;;;;;;;26.00;14.10;;;15.20;99.90;;;;;;4958564;28;20153;-75
2023/10/15 00:53:28;;;;;;;28.23;15.65;;;15.20;99.90;;;;;;4956771;28;20688;-75
2023/10/15 00:56:04;;;;;;;24.90;14.45;;;15.20;99.90;;;;;;4961356;28;20074;-77
2023/10/15 00:58:38;;;;;;;24.95;14.13;;;15.10;99.90;;;;;;4960568;28;20019;-82
2023/10/15 01:03:54;;;;;;;22.88;14.52;;;15.10;99.90;;;;;;4975597;28;20050;-74
2023/10/15 01:06:32;;;;;;;26.73;15.40;;;15.10;99.90;;;;;;4951343;28;20022;-81
2023/10/15 01:09:10;;;;;;;28.02;13.95;;;15.20;99.90;;;;;;4975409;28;20061;-82
2023/10/15 01:11:37;;;;;;;27.35;15.05;;;15.20;99.90;;;;;;4975594;28;20014;-77
2023/10/15 01:14:03;;;;;;;21.75;13.05;;;15.30;99.90;;;;;;4957973;28;20023;-75
2023/10/15 01:16:36;;;;;;;28.77;14.18;;;15.30;99.90;;;;;;4975261;28;20023;-79
2023/10/15 01:19:15;;;;;;;23.52;12.82;;;15.30;99.90;;;;;;4957296;28;20050;-82
2023/10/15 01:24:18;;;;;;;23.20;13.73;;;15.10;99.90;;;;;;4965517;28;20541;-75
2023/10/15 01:26:51;;;;;;;22.70;13.32;;;15.20;99.90;;;;;;4956497;28;20117;-77
2023/10/15 01:29:23;;;;;;;22.42;11.68;;;15.20;99.90;;;;;;4957778;28;20031;-79
2023/10/15 01:31:58;;;;;;;27.80;13.30;;;15.20;99.90;;;;;;4974730;28;20047;-75
2023/10/15 01:34:25;;;;;;;24.80;12.00;;;15.20;99.90;;;;;;4974873;28;20031;-78
2023/10/15 01:36:51;;;;;;;22.10;11.65;;;15.20;99.90;;;;;;4957138;28;20450;-78
2023/10/15 01:39:37;;;;;;;25.55;13.70;;;15.20;99.90;;;;;;4956860;28;20027;-81
2023/10/15 01:42:04;;;;;;;22.23;12.85;;;15.10;99.90;;;;;;4947785;28;20105;-79
2023/10/15 01:44:33;;;;;;;29.02;13.25;;;15.10;99.90;;;;;;4957053;28;20031;-79
2023/10/15 01:49:34;;;;;;;27.25;12.52;;;15.10;99.90;;;;;;4974701;28;20084;-74
2023/10/15 01:52:09;;;;;;;22.85;12.25;;;15.10;99.90;;;;;;4974397;28;20022;-79
2023/10/15 01:54:36;;;;;;;22.95;13.07;;;15.10;99.90;;;;;;4956729;28;20038;-80
2023/10/15 01:57:06;;;;;;;23.60;12.43;;;15.10;99.90;;;;;;4957367;28;20041;-81
2023/10/15 01:59:47;;;;;;;29.25;12.95;;;15.00;99.90;;;;;;4969651;28;20542;-74
2023/10/15 02:02:17;;;;;;;24.58;12.20;;;15.00;99.90;;;;;;4958886;28;20125;-76
2023/10/15 02:04:46;;;;;;;27.27;13.05;;;15.00;99.90;;;;;;4974148;28;20029;-77
2023/10/15 02:07:20;;;;;;;23.60;12.23;;;15.10;99.90;;;;;;4933510;28;20069;-78
2023/10/15 02:09:46;;;;;;;27.73;14.20;;;15.10;99.90;;;;;;4941404;29;20546;-77
2023/10/15 02:12:13;;;;;;;26.05;13.40;;;15.00;99.90;;;;;;4968378;28;20027;-74
2023/10/15 02:14:42;;;;;;;22.52;13.27;;;15.10;99.90;;;;;;4973867;28;20054;-74
2023/10/15 02:17:13;;;;;;;33.63;13.20;;;15.00;99.90;;;;;;4972743;28;20026;-75
2023/10/15 02:19:42;;;;;;;22.83;11.90;;;14.90;99.90;;;;;;4956822;28;20030;-76
2023/10/15 02:22:12;;;;;;;21.35;11.93;;;14.80;99.90;;;;;;4972651;28;20062;-75
2023/10/15 02:24:46;;;;;;;21.95;11.80;;;14.70;99.90;;;;;;4969133;28;20050;-75
2023/10/15 02:27:21;;;;;;;23.13;11.95;;;14.70;99.90;;;;;;4929944;29;20047;-78
2023/10/15 02:29:50;;;;;;;28.08;12.27;;;14.80;99.90;;;;;;4953591;28;20163;-77
2023/10/15 02:32:30;;;;;;;24.00;12.00;;;14.90;99.90;;;;;;4973899;28;20023;-74
2023/10/15 02:34:59;;;;;;;24.40;12.85;;;14.90;99.90;;;;;;4973206;28;20493;-80
2023/10/15 02:37:29;;;;;;;30.88;15.07;;;14.80;99.90;;;;;;4956061;28;20077;-81
2023/10/15 02:39:57;;;;;;;28.65;12.70;;;14.80;99.90;;;;;;4956241;28;20081;-77
2023/10/15 02:42:30;;;;;;;24.15;12.45;;;14.90;99.90;;;;;;4956270;28;20077;-77
2023/10/15 02:44:58;;;;;;;23.42;11.60;;;14.80;99.90;;;;;;4972700;28;20031;-75
2023/10/15 02:50:03;;;;;;;21.98;12.18;;;14.80;99.90;;;;;;4970077;28;20062;-79
2023/10/15 02:52:43;;;;;;;22.83;13.07;;;14.70;99.90;;;;;;4973590;28;20042;-76
2023/10/15 02:55:11;;;;;;;22.20;13.05;;;14.70;99.90;;;;;;4951361;28;20062;-80
2023/10/15 02:57:41;;;;;;;27.27;13.07;;;14.70;99.90;;;;;;4955865;28;20027;-76
2023/10/15 03:02:51;;;;;;;23.27;11.27;;;14.70;99.90;;;;;;4955489;28;20158;-74
2023/10/15 03:05:17;;;;;;;24.58;12.70;;;14.60;99.90;;;;;;4973274;28;20034;-77
2023/10/15 03:07:45;;;;;;;24.10;12.13;;;;;;;;;;4955155;28;20033;-73
2023/10/15 03:10:21;;;;;;;23.48;13.95;;;;;;;;;;4955569;28;20027;-75
2023/10/15 03:12:50;;;;;;;30.40;11.95;;;14.50;99.90;;;;;;4955537;28;20509;-75
2023/10/15 03:15:17;;;;;;;22.05;13.00;;;14.50;99.90;;;;;;4955699;28;20022;-77
2023/10/15 03:17:44;;;;;;;24.35;12.50;;;14.50;99.90;;;;;;4962355;28;20033;-80
2023/10/15 03:22:38;;;;;;;24.23;12.18;;;14.60;99.90;;;;;;4972617;28;20382;-80
2023/10/15 03:25:06;;;;;;;27.20;12.70;;;14.60;99.90;;;;;;4955083;28;20059;-75
2023/10/15 03:27:32;;;;;;;20.48;11.15;;;14.60;99.90;;;;;;4972598;28;20463;-73
2023/10/15 03:29:58;;;;;;;25.08;12.55;;;14.60;99.90;;;;;;4972551;28;20015;-75
2023/10/15 03:32:31;;;;;;;27.23;11.68;;;14.60;99.90;;;;;;4954843;28;20038;-74
2023/10/15 03:35:17;;;;;;;17.98;11.00;;;14.60;99.90;;;;;;4939055;28;20034;-75
2023/10/15 03:37:47;;;;;;;23.33;12.27;;;14.60;99.90;;;;;;4973151;28;20157;-74
2023/10/15 03:40:30;;;;;;;24.48;12.20;;;14.60;99.90;;;;;;4968699;28;20038;-78
2023/10/15 03:43:01;;;;;;;22.15;11.50;;;14.50;99.90;;;;;;4971247;28;20110;-80
2023/10/15 03:45:28;;;;;;;25.10;12.13;;;14.60;99.90;;;;;;4972835;28;20031;-80
2023/10/15 03:47:57;;;;;;;22.33;11.40;;;14.60;99.90;;;;;;4973238;28;20027;-79
2023/10/15 03:50:28;;;;;;;21.65;11.57;;;14.60;99.90;;;;;;4976984;28;20486;-75
2023/10/15 03:52:56;;;;;;;23.65;11.57;;;14.70;99.90;;;;;;4958928;28;20094;-75
2023/10/15 03:55:22;;;;;;;23.98;11.55;;;14.80;99.90;;;;;;4975545;28;20035;-77
2023/10/15 03:57:51;;;;;;;27.55;11.73;;;14.80;99.90;;;;;;4958450;28;20049;-80
2023/10/15 04:00:35;;;;;;;25.65;11.52;;;14.80;99.90;;;;;;4959469;28;20031;-81
2023/10/15 04:03:09;;;;;;;27.08;10.93;;;14.90;99.90;;;;;;4973903;28;20098;-81
2023/10/15 04:05:35;;;;;;;25.35;11.40;;;15.00;99.90;;;;;;4976286;28;20041;-79
2023/10/15 04:08:01;;;;;;;22.65;11.75;;;14.90;99.90;;;;;;4976152;28;20019;-80
2023/10/15 04:10:33;;;;;;;28.10;11.55;;;14.80;99.90;;;;;;4975867;28;20026;-76
2023/10/15 04:13:01;;;;;;;36.05;13.15;;;14.90;99.90;;;;;;4959063;28;20034;-78
2023/10/15 04:15:29;;;;;;;19.30;10.65;;;14.90;99.90;;;;;;4957986;28;20471;-74
2023/10/15 04:17:56;;;;;;;22.50;10.90;;;14.90;99.90;;;;;;4957743;28;20039;-80
2023/10/15 04:20:55;;;;;;;27.58;12.43;;;14.90;99.90;;;;;;4975553;28;20097;-77
2023/10/15 04:23:21;;;;;;;28.00;11.50;;;15.00;99.90;;;;;;4955515;28;20047;-78
2023/10/15 04:25:47;;;;;;;;;;;15.00;99.90;;;;;;4976151;28;20787;-79
2023/10/15 04:28:14;;;;;;;21.20;10.32;;;15.00;99.90;;;;;;4976189;28;19910;-73
2023/10/15 04:30:40;;;;;;;22.80;11.43;;;15.00;99.90;;;;;;4957873;28;20030;-75
2023/10/15 04:33:13;;;;;;;23.80;11.95;;;15.10;99.90;;;;;;4975479;28;20027;-74
2023/10/15 04:35:42;;;;;;;23.67;11.60;;;15.20;99.90;;;;;;4975100;28;20023;-74
2023/10/15 04:38:08;;;;;;;27.65;12.30;;;15.20;99.90;;;;;;4958857;28;20027;-76
2023/10/15 04:43:25;;;;;;;20.70;10.23;;;15.30;99.90;;;;;;4971879;28;20027;-74
2023/10/15 04:45:56;;;;;;;23.00;11.93;;;15.40;99.90;;;;;;4975974;28;20501;-80
2023/10/15 04:48:33;;;;;;;27.92;11.25;;;15.50;99.90;;;;;;4975270;28;20023;-74
2023/10/15 04:51:11;;;;;;;20.42;11.55;;;15.50;99.90;;;;;;4971039;28;20057;-74
2023/10/15 04:53:42;;;;;;;23.25;13.07;;;15.40;99.90;;;;;;4974227;28;20035;-80
2023/10/15 04:56:08;;;;;;;27.63;14.55;;;15.40;99.90;;;;;;4975402;28;20129;-77
2023/10/15 04:58:34;;;;;;;30.88;11.52;;;15.30;99.90;;;;;;4975494;28;20027;-78
2023/10/15 05:01:03;;;;;;;31.70;14.60;;;15.20;99.90;;;;;;4974210;28;20096;-78
2023/10/15 05:03:31;;;;;;;38.22;20.55;;;15.10;99.90;;;;;;4975231;28;20026;-76
2023/10/15 05:06:02;;;;;;;43.10;20.52;;;14.90;99.90;;;;;;4975377;28;20045;-76
2023/10/15 05:08:28;;;;;;;43.40;22.60;;;15.00;99.90;;;;;;4974563;28;20473;-78
2023/10/15 05:10:54;;;;;;;41.30;21.00;;;15.00;99.90;;;;;;4975420;28;20019;-79
2023/10/15 05:13:20;;;;;;;42.17;24.00;;;15.00;99.90;;;;;;4970945;28;20035;-74
2023/10/15 05:15:47;;;;;;;44.78;23.83;;;15.00;99.90;;;;;;4972173;28;20026;-74
2023/10/15 05:18:15;;;;;;;44.67;24.52;;;15.10;99.90;;;;;;4957261;28;20038;-75
2023/10/15 05:20:44;;;;;;;41.03;22.75;;;15.10;99.90;;;;;;4974705;28;20054;-74
2023/10/15 05:23:11;;;;;;;45.00;23.75;;;15.40;99.90;;;;;;4959330;28;20035;-74
2023/10/15 05:25:40;;;;;;;49.00;25.20;;;15.60;99.90;;;;;;4974524;28;20043;-75
2023/10/15 05:28:06;;;;;;;47.22;25.42;;;15.70;99.90;;;;;;4957709;28;20054;-77
2023/10/15 05:30:33;;;;;;;46.63;26.27;;;15.90;99.90;;;;;;4974433;28;20035;-77
2023/10/15 05:33:00;;;;;;;46.40;25.83;;;16.00;99.90;;;;;;4965889;28;20026;-76
2023/10/15 05:35:29;;;;;;;46.85;22.75;;;16.30;99.90;;;;;;4967521;28;20483;-75
2023/10/15 05:37:55;;;;;;;43.75;24.15;;;16.40;99.90;;;;;;4972018;28;20030;-75
2023/10/15 05:40:24;;;;;;;42.38;20.85;;;16.70;99.90;;;;;;4970785;28;20117;-74
2023/10/15 05:42:51;;;;;;;35.15;17.98;;;16.80;99.90;;;;;;4974536;28;20031;-75
2023/10/15 05:45:18;;;;;;;32.13;17.92;;;17.00;99.90;;;;;;4974565;28;20039;-74
2023/10/15 05:47:44;;;;;;;27.70;18.20;;;17.10;99.90;;;;;;4956785;28;20039;-74
2023/10/15 05:50:12;;;;;;;30.95;18.25;;;16.90;99.90;;;;;;4945891;29;20031;-74
2023/10/15 05:52:41;;;;;;;30.88;17.38;;;16.60;99.90;;;;;;4967790;28;20503;-80
2023/10/15 05:55:07;;;;;;;27.77;17.38;;;16.60;99.90;;;;;;4972140;28;20038;-79
2023/10/15 05:57:33;;;;;;;27.80;18.02;;;16.70;99.90;;;;;;4970447;28;20031;-80
2023/10/15 06:00:17;;;;;;;28.92;19.42;;;16.80;99.90;;;;;;4970350;28;20042;-74
2023/10/15 06:02:47;;;;;;;28.83;17.27;;;16.80;99.90;;;;;;4970408;28;20071;-75
2023/10/15 06:05:14;;;;;;;30.65;17.48;;;17.00;99.90;;;;;;4974086;28;20429;-78
2023/10/15 06:07:41;;;;;;;28.35;16.25;;;17.20;99.90;;;;;;4970284;28;20023;-77
2023/10/15 06:10:14;;;;;;;24.58;14.15;;;17.30;99.90;;;;;;4947875;28;20038;-77
2023/10/15 06:12:40;;;;;;;24.45;12.88;;;17.40;99.90;;;;;;4973364;28;20054;-80
2023/10/15 06:15:07;;;;;;;26.00;13.50;;;17.30;99.90;;;;;;4972811;28;20023;-79
2023/10/15 06:17:34;;;;;;;24.38;14.02;;;17.30;99.90;;;;;;4973848;28;20521;-76
2023/10/15 06:20:12;;;;;;;22.23;14.07;;;17.40;99.90;;;;;;4972494;28;20037;-81
2023/10/15 06:22:45;;;;;;;23.17;12.82;;;17.30;99.90;;;;;;4961902;28;20042;-75
2023/10/15 06:25:12;;;;;;;27.40;12.85;;;17.30;99.90;;;;;;4972487;28;20062;-84
2023/10/15 06:27:41;;;;;;;21.73;13.88;;;17.30;99.90;;;;;;4973963;28;20034;-84
2023/10/15 06:30:14;;;;;;;24.55;13.27;;;17.30;99.90;;;;;;4973688;28;20034;-81
2023/10/15 06:32:41;;;;;;;23.00;12.52;;;17.20;99.90;;;;;;4964632;28;20023;-83
2023/10/15 06:35:08;;;;;;;21.33;13.25;;;17.20;99.90;;;;;;4971469;28;20163;-79
2023/10/15 06:37:34;;;;;;;21.88;14.27;;;17.00;99.90;;;;;;4973025;28;20062;-84
2023/10/15 06:40:01;;;;;;;19.70;11.52;;;16.90;99.90;;;;;;4973026;28;20026;-76
2023/10/15 06:42:27;;;;;;;23.00;13.05;;;16.90;99.90;;;;;;4973759;28;20387;-75
2023/10/15 06:44:53;;;;;;;24.10;13.88;;;16.80;99.90;;;;;;4973622;28;20033;-85
2023/10/15 06:47:19;;;;;;;24.85;13.85;;;16.80;99.90;;;;;;4973689;28;20059;-74
2023/10/15 06:49:45;;;;;;;25.10;14.77;;;16.80;99.90;;;;;;4973532;28;20074;-75
2023/10/15 06:52:11;;;;;;;21.80;13.40;;;16.60;99.90;;;;;;4952398;29;20510;-78
2023/10/15 06:54:37;;;;;;;24.10;13.77;;;16.60;99.90;;;;;;4972981;28;20027;-79
2023/10/15 06:57:04;;;;;;;22.92;13.25;;;16.50;99.90;;;;;;4955960;28;20042;-74
2023/10/15 06:59:31;;;;;;;25.17;13.60;;;16.50;99.90;;;;;;4956072;28;20073;-74
2023/10/15 07:01:57;;;;;;;22.60;12.75;;;16.30;99.90;;;;;;4973264;28;20126;-86
2023/10/15 07:04:24;;;;;;;20.20;11.82;;;16.30;99.90;;;;;;4973725;28;20030;-82
2023/10/15 07:06:49;;;;;;;20.05;11.27;;;16.20;99.90;;;;;;4973446;28;20041;-84
2023/10/15 07:09:18;;;;;;;27.05;13.23;;;16.10;99.90;;;;;;4973451;28;20019;-78
2023/10/15 07:11:44;;;;;;;21.02;12.05;;;16.00;99.90;;;;;;4955159;28;20109;-82
2023/10/15 07:14:10;;;;;;;28.58;11.20;;;16.10;99.90;;;;;;4972355;28;20102;-83
2023/10/15 07:16:38;;;;;;;28.85;13.50;;;16.10;99.90;;;;;;4971874;28;20113;-83
2023/10/15 07:19:04;;;;;;;35.35;16.63;;;16.00;99.90;;;;;;4972697;28;20026;-84
2023/10/15 07:21:30;;;;;;;34.17;19.55;;;15.90;99.90;;;;;;4972606;28;20045;-84
2023/10/15 07:23:57;;;;;;;37.63;19.52;;;16.00;99.90;;;;;;4972929;28;20475;-81
2023/10/15 07:26:22;;;;;;;32.85;18.63;;;15.90;99.90;;;;;;4963509;28;20509;-83
2023/10/15 07:28:49;;;;;;;38.33;20.42;;;16.00;99.90;;;;;;4954927;28;20039;-81
2023/10/15 07:31:15;;;;;;;35.38;18.25;;;16.10;99.90;;;;;;4972410;28;20030;-83
2023/10/15 07:33:40;;;;;;;28.90;15.73;;;16.00;99.90;;;;;;4972615;28;20030;-83
2023/10/15 07:36:07;;;;;;;26.10;14.77;;;16.10;99.90;;;;;;4972947;28;20554;-80
2023/10/15 07:38:36;;;;;;;28.88;14.57;;;16.10;99.90;;;;;;4952316;28;20027;-82
2023/10/15 07:41:02;;;;;;;27.75;14.05;;;16.10;99.90;;;;;;4968762;28;20045;-76
2023/10/15 07:43:27;;;;;;;29.80;13.50;;;16.10;99.90;;;;;;4967327;28;20027;-84
2023/10/15 07:45:53;;;;;;;25.27;13.30;;;16.10;99.90;;;;;;4970469;28;20050;-76
2023/10/15 07:48:19;;;;;;;22.30;12.50;;;16.10;99.90;;;;;;4972955;28;20015;-79
2023/10/15 07:50:45;;;;;;;24.83;13.48;;;16.10;99.90;;;;;;4955783;28;20126;-84
2023/10/15 07:53:12;;;;;;;30.10;15.77;;;16.20;99.90;;;;;;4973441;28;20023;-78
2023/10/15 07:55:38;;;;;;;25.85;13.48;;;16.10;99.90;;;;;;4972704;28;20038;-77
2023/10/15 07:58:04;;;;;;;28.25;14.57;;;16.10;99.90;;;;;;4973344;28;20455;-76
2023/10/15 08:00:30;;;;;;;33.05;15.80;;;16.10;99.90;;;;;;4955339;28;20505;-83
2023/10/15 08:02:59;;;;;;;25.42;13.65;;;16.00;99.90;;;;;;4972752;28;20035;-81
2023/10/15 08:05:25;;;;;;;21.77;10.90;;;15.90;99.90;;;;;;4955070;28;20026;-82
2023/10/15 08:07:52;;;;;;;21.55;8.75;;;15.90;99.90;;;;;;4972435;28;20027;-78
2023/10/15 08:10:20;;;;;;;25.67;10.43;;;15.90;99.90;;;;;;4972888;28;20478;-83
2023/10/15 08:12:50;;;;;;;15.05;6.63;;;15.90;99.90;;;;;;4972323;28;20075;-82
2023/10/15 08:15:17;;;;;;;15.50;6.85;;;15.90;99.90;;;;;;4972690;28;20045;-75
2023/10/15 08:17:44;;;;;;;17.65;7.05;;;15.90;99.90;;;;;;4972693;28;20027;-83
2023/10/15 08:20:10;;;;;;;13.73;7.40;;;15.80;99.90;;;;;;4972763;28;20042;-85
2023/10/15 08:22:36;;;;;;;17.13;7.00;;;15.80;99.90;;;;;;4972643;28;20042;-84
2023/10/15 08:25:02;;;;;;;13.70;6.93;;;15.80;99.90;;;;;;4972278;28;20057;-86
2023/10/15 08:27:28;;;;;;;19.00;7.43;;;15.80;99.90;;;;;;4972732;28;20023;-84
2023/10/15 08:29:54;;;;;;;13.15;7.70;;;15.80;99.90;;;;;;4972542;28;20382;-78
2023/10/15 08:32:26;;;;;;;13.25;7.05;;;15.70;99.90;;;;;;4972772;28;20070;-85
2023/10/15 08:34:52;;;;;;;;;;;15.80;99.90;;;;;;4974503;28;20346;-74
2023/10/15 08:37:18;;;;;;;9.70;4.63;;;15.70;99.90;;;;;;4976213;28;20281;-84
2023/10/15 08:39:44;;;;;;;11.23;5.40;;;15.70;99.90;;;;;;4976178;28;20065;-81
2023/10/15 08:42:13;;;;;;;14.80;7.43;;;15.70;99.90;;;;;;4972708;28;20053;-74
2023/10/15 08:44:42;;;;;;;18.70;6.18;;;15.70;99.90;;;;;;4964677;28;20022;-76
2023/10/15 08:47:13;;;;;;;11.15;5.53;;;15.70;99.90;;;;;;4972875;28;20398;-74
2023/10/15 08:49:52;;;;;;;12.75;5.80;;;15.70;99.90;;;;;;4971135;28;20062;-88
2023/10/15 08:52:21;;;;;;;7.97;4.47;;;15.60;99.90;;;;;;4967066;28;20046;-75
2023/10/15 08:54:48;;;;;;;11.73;5.47;;;15.70;99.90;;;;;;4971321;28;20031;-79
2023/10/15 08:57:14;;;;;;;14.20;5.72;;;15.80;99.90;;;;;;4961019;28;20042;-81
2023/10/15 08:59:43;;;;;;;14.90;5.88;;;15.90;99.90;;;;;;4970749;28;20102;-74
2023/10/15 09:02:10;;;;;;;12.05;5.28;;;15.90;99.90;;;;;;4975474;28;20062;-82
2023/10/15 09:04:36;;;;;;;13.25;6.20;;;15.90;99.90;;;;;;4975397;28;20177;-84
2023/10/15 09:07:03;;;;;;;12.55;5.50;;;15.90;99.90;;;;;;4975819;28;20093;-83
2023/10/15 09:09:33;;;;;;;13.73;5.20;;;16.00;99.90;;;;;;4975019;28;20050;-82
2023/10/15 09:11:59;;;;;;;11.55;4.88;;;15.90;99.90;;;;;;4974612;28;20031;-75
2023/10/15 09:14:44;;;;;;;14.50;6.10;;;15.90;99.90;;;;;;4974152;28;20027;-73
2023/10/15 09:17:17;;;;;;;9.45;5.10;;;15.90;99.90;;;;;;4974983;28;20043;-78
2023/10/15 09:19:46;;;;;;;9.85;4.57;;;16.10;99.90;;;;;;4975321;28;20029;-74
2023/10/15 09:22:15;;;;;;;7.82;3.85;;;16.00;99.90;;;;;;4974699;28;20034;-83
2023/10/15 09:24:42;;;;;;;12.63;4.15;;;16.00;99.90;;;;;;4975292;28;20031;-76
2023/10/15 09:27:08;;;;;;;9.48;4.53;;;16.00;99.90;;;;;;4969038;28;20043;-80
2023/10/15 09:29:33;;;;;;;10.20;4.18;;;16.10;99.90;;;;;;4971967;28;20029;-79
2023/10/15 09:32:04;;;;;;;13.82;5.72;;;16.00;99.90;;;;;;4958698;28;20110;-83
2023/10/15 09:34:31;;;;;;;8.57;3.33;;;16.10;99.90;;;;;;4974876;28;20031;-78
2023/10/15 09:37:00;;;;;;;9.50;3.60;;;16.00;99.90;;;;;;4975704;28;20485;-79
2023/10/15 09:39:29;;;;;;;8.82;3.67;;;16.00;99.90;;;;;;4974685;28;20035;-82
2023/10/15 09:42:05;;;;;;;5.47;2.97;;;16.00;99.90;;;;;;4975022;28;20058;-80
2023/10/15 09:44:35;;;;;;;8.02;3.63;;;16.00;99.90;;;;;;4975146;28;20031;-85
2023/10/15 09:47:04;;;;;;;3.85;2.63;;;16.00;99.90;;;;;;4973633;28;20042;-85
2023/10/15 09:49:33;;;;;;;4.88;2.80;;;16.00;99.90;;;;;;4970205;28;20042;-77
2023/10/15 09:52:07;;;;;;;10.68;2.72;;;15.90;99.90;;;;;;4967097;28;20015;-86
2023/10/15 09:54:36;;;;;;;7.97;3.30;;;15.80;99.90;;;;;;4971769;28;20041;-75
2023/10/15 09:57:02;;;;;;;5.40;3.05;;;15.90;99.90;;;;;;4960539;28;20443;-87
2023/10/15 09:59:29;;;;;;;8.98;4.22;;;15.90;99.90;;;;;;4972435;28;20038;-79
2023/10/15 10:01:59;;;;;;;7.80;3.60;;;15.90;99.90;;;;;;4961964;28;20115;-86
2023/10/15 10:05:05;;;;;;;7.72;3.75;;;15.70;99.90;;;;;;4949708;28;20050;-75
2023/10/15 10:07:36;;;;;;;9.85;3.80;;;15.80;99.90;;;;;;4948367;28;20105;-87
2023/10/15 10:10:23;;;;;;;9.23;3.53;;;15.90;99.90;;;;;;4964017;28;20112;-87
2023/10/15 10:13:14;;;;;;;4.50;2.40;;;15.80;99.90;;;;;;4958877;28;20265;-80
2023/10/15 10:15:54;;;;;;;8.30;3.58;;;15.80;99.90;;;;;;4962815;28;20026;-84
2023/10/15 10:18:24;;;;;;;7.53;2.90;;;15.90;99.90;;;;;;4969062;28;20035;-79
2023/10/15 10:20:50;;;;;;;8.75;3.38;;;15.90;99.90;;;;;;4978248;28;20039;-82
2023/10/15 10:23:17;;;;;;;8.05;3.50;;;15.90;99.90;;;;;;4976495;28;20027;-82
2023/10/15 10:25:45;;;;;;;5.95;3.13;;;15.90;99.90;;;;;;4976913;28;20054;-85
2023/10/15 10:28:16;;;;;;;4.13;2.55;;;16.00;99.90;;;;;;4971105;28;20026;-88
2023/10/15 10:30:58;;;;;;;3.75;2.60;;;16.00;99.90;;;;;;4982385;28;20049;-86
2023/10/15 10:33:45;;;;;;;4.38;2.33;;;16.10;99.90;;;;;;4978807;28;20058;-90
2023/10/15 10:36:18;;;;;;;5.53;2.95;;;16.00;99.90;;;;;;4968949;28;20046;-80
2023/10/15 10:39:07;;;;;;;6.65;3.10;;;16.10;99.90;;;;;;4973935;28;20035;-81
2023/10/15 10:41:38;;;;;;;6.93;3.42;;;16.10;99.90;;;;;;4961169;28;20082;-82
2023/10/15 10:44:23;;;;;;;5.55;2.40;;;16.10;99.90;;;;;;4958687;28;20038;-81
2023/10/15 10:46:52;;;;;;;6.63;2.40;;;16.00;99.90;;;;;;4974021;28;20629;-78
2023/10/15 10:49:29;;;;;;;7.68;2.08;;;15.90;99.90;;;;;;4974211;28;20026;-77
2023/10/15 10:52:06;;;;;;;5.53;3.00;;;16.00;99.90;;;;;;4969992;28;20027;-75
2023/10/15 10:54:32;;;;;;;5.18;1.92;;;16.00;99.90;;;;;;4971088;28;20517;-76
2023/10/15 10:57:00;;;;;;;5.75;2.00;;;15.90;99.90;;;;;;4972692;28;20499;-81
2023/10/15 10:59:28;;;;;;;4.57;1.60;;;15.80;99.90;;;;;;4964071;28;20027;-78
2023/10/15 11:01:54;;;;;;;6.35;1.92;;;15.80;99.90;;;;;;4958267;28;20121;-78
2023/10/15 11:04:27;;;;;;;6.78;1.70;;;15.70;99.90;;;;;;4938023;28;20022;-75
2023/10/15 11:06:53;;;;;;;3.95;1.95;;;15.50;99.90;;;;;;4974194;28;20169;-80
2023/10/15 11:09:25;;;;;;;5.53;1.92;;;15.50;99.90;;;;;;4974920;28;20031;-86
2023/10/15 11:11:52;;;;;;;9.82;2.97;;;15.50;99.90;;;;;;4956455;28;20038;-81
2023/10/15 11:14:23;;;;;;;5.68;1.73;;;15.40;99.90;;;;;;4973708;28;20061;-79
2023/10/15 11:16:50;;;;;;;2.58;1.73;;;15.40;99.90;;;;;;4965177;28;20062;-81
2023/10/15 11:19:24;;;;;;;4.82;1.90;;;15.40;99.90;;;;;;4974295;28;20062;-83
2023/10/15 11:21:51;;;;;;;3.75;1.63;;;15.30;99.90;;;;;;4962314;28;20121;-77
2023/10/15 11:24:19;;;;;;;4.38;1.98;;;15.40;99.90;;;;;;4972633;28;20478;-86
2023/10/15 11:26:46;;;;;;;4.53;1.50;;;15.30;99.90;;;;;;4966452;28;20485;-80
2023/10/15 11:29:22;;;;;;;5.30;2.15;;;15.30;99.90;;;;;;4964590;28;20059;-86
2023/10/15 11:31:53;;;;;;;4.15;1.75;;;15.40;99.90;;;;;;4975512;28;20031;-78
2023/10/15 11:34:21;;;;;;;6.28;2.05;;;15.40;99.90;;;;;;4957378;28;20496;-83
2023/10/15 11:36:48;;;;;;;4.95;2.05;;;15.40;99.90;;;;;;4974921;28;20035;-84
2023/10/15 11:39:18;;;;;;;7.65;1.70;;;15.30;99.90;;;;;;4975009;28;20167;-80
2023/10/15 11:41:49;;;;;;;2.65;1.63;;;15.30;99.90;;;;;;4974233;28;20039;-78
2023/10/15 11:44:17;;;;;;;5.88;2.10;;;15.20;99.90;;;;;;4966621;28;20037;-75
2023/10/15 11:46:46;;;;;;;6.65;2.17;;;15.00;99.90;;;;;;4972904;28;20018;-75
2023/10/15 11:49:12;;;;;;;9.90;2.30;;;15.00;99.90;;;;;;4972755;28;20479;-77
2023/10/15 11:51:40;;;;;;;3.53;1.73;;;15.00;99.90;;;;;;4970681;28;20082;-77
2023/10/15 11:54:09;;;;;;;4.22;1.98;;;14.90;99.90;;;;;;4973303;28;20073;-78
2023/10/15 11:56:38;;;;;;;4.57;2.15;;;14.90;99.90;;;;;;4968554;28;20027;-74
2023/10/15 11:59:04;;;;;;;4.85;1.92;;;14.90;99.90;;;;;;4972906;28;20889;-81
2023/10/15 12:01:30;;;;;;;5.68;2.28;;;14.80;99.90;;;;;;4973084;28;20038;-85
2023/10/15 12:04:00;;;;;;;4.28;2.00;;;14.90;99.90;;;;;;4973072;28;20386;-82
2023/10/15 12:06:26;;;;;;;4.53;2.10;;;14.90;99.90;;;;;;4960411;28;20373;-81
2023/10/15 12:08:58;;;;;;;13.50;2.35;;;14.80;99.90;;;;;;4973565;28;20090;-75
2023/10/15 12:11:25;;;;;;;4.93;1.75;;;14.80;99.90;;;;;;4976656;28;20474;-81
2023/10/15 12:13:51;;;;;;;6.53;2.00;;;14.70;99.90;;;;;;4976320;28;20030;-83
2023/10/15 12:16:17;;;;;;;6.32;2.22;;;14.70;99.90;;;;;;4975816;28;20501;-78
2023/10/15 12:18:43;;;;;;;4.47;1.92;;;14.60;99.90;;;;;;4976245;28;20026;-79
2023/10/15 12:21:10;;;;;;;3.45;2.15;;;;;;;;;;4968360;28;20118;-81
2023/10/15 12:23:36;;;;;;;7.53;2.65;;;;;;;;;;4976498;28;20077;-82
2023/10/15 12:26:07;;;;;;;4.00;2.33;;;;;;;;;;4975772;28;20043;-79
2023/10/15 12:28:43;;;;;;;11.07;2.88;;;14.40;99.90;;;;;;4958774;28;20035;-76
2023/10/15 12:31:09;;;;;;;5.57;2.83;;;14.40;99.90;;;;;;4976439;28;20026;-84
2023/10/15 12:33:35;;;;;;;6.03;2.22;;;14.40;99.90;;;;;;4958495;28;20085;-80
2023/10/15 12:36:01;;;;;;;6.28;2.20;;;14.40;99.90;;;;;;4958469;28;20522;-75
2023/10/15 12:38:26;;;;;;;10.02;2.58;;;14.30;99.90;;;;;;4960783;28;20067;-80
2023/10/15 12:40:55;;;;;;;4.90;2.03;;;14.30;99.90;;;;;;4966943;28;20049;-82
2023/10/15 12:43:21;;;;;;;6.75;2.30;;;14.20;99.90;;;;;;4968501;28;20106;-78
2023/10/15 12:45:52;;;;;;;4.10;2.00;;;14.10;99.90;;;;;;4956933;28;20167;-79
2023/10/15 12:48:20;;;;;;;5.93;2.42;;;14.10;99.90;;;;;;4959002;28;20479;-75
2023/10/15 12:50:47;;;;;;;4.82;2.10;;;14.00;99.90;;;;;;4962783;28;20498;-77
2023/10/15 12:53:13;;;;;;;5.97;2.22;;;14.00;99.90;;;;;;4975075;28;20035;-76
2023/10/15 12:55:39;;;;;;;5.65;2.22;;;13.60;99.90;;;;;;4975491;28;20019;-80
2023/10/15 12:58:05;;;;;;;7.55;2.47;;;13.70;99.90;;;;;;4975805;28;20505;-79
2023/10/15 13:00:32;;;;;;;6.35;2.15;;;13.60;99.90;;;;;;4975516;28;20023;-76
2023/10/15 13:02:58;;;;;;;6.68;2.70;;;13.60;99.90;;;;;;4975563;28;20118;-77
2023/10/15 13:05:26;;;;;;;4.60;2.00;;;13.60;99.90;;;;;;4975782;28;20031;-87
2023/10/15 13:07:53;;;;;;;4.18;2.50;;;13.50;99.90;;;;;;4975283;28;20113;-83
2023/10/15 13:10:20;;;;;;;8.57;2.22;;;13.40;99.90;;;;;;4975334;28;20023;-83